createdAt,value
2023-05-10T00:02:01.901Z,4.63
2023-05-10T00:05:04.496Z,1.73
2023-05-10T00:08:06.587Z,4.65
2023-05-10T00:11:08.793Z,5.88
2023-05-10T00:14:11.936Z,12.15
2023-05-10T00:17:14.360Z,2.30
2023-05-10T00:20:16.629Z,2.78
2023-05-10T00:23:19.143Z,4.38
2023-05-10T00:26:21.361Z,7.15
2023-05-10T00:29:29.123Z,3.10
2023-05-10T00:32:31.108Z,3.00
2023-05-10T00:35:33.438Z,1.95
2023-05-10T00:38:35.459Z,2.90
2023-05-10T00:41:39.066Z,1.87
2023-05-10T00:44:42.739Z,2.47
2023-05-10T00:47:45.251Z,2.85
2023-05-10T00:50:47.656Z,2.17
2023-05-10T00:53:52.138Z,6.75
2023-05-10T00:56:54.966Z,7.15
2023-05-10T00:59:58.844Z,1.65
2023-05-10T01:03:01.680Z,1.83
2023-05-10T01:06:04.536Z,2.67
2023-05-10T01:09:07.605Z,2.95
2023-05-10T01:12:09.887Z,2.17
2023-05-10T01:15:13.412Z,1.25
2023-05-10T01:18:20.285Z,2.38
2023-05-10T01:21:38.901Z,1.77
2023-05-10T01:24:47.371Z,3.90
2023-05-10T01:28:04.594Z,1.92
2023-05-10T01:31:28.467Z,2.28
2023-05-10T01:34:36.844Z,2.28
2023-05-10T01:38:08.527Z,3.03
2023-05-10T01:41:28.972Z,1.52
2023-05-10T01:44:35.946Z,3.42
2023-05-10T01:48:04.313Z,3.47
2023-05-10T01:51:07.837Z,2.17
2023-05-10T01:54:12.573Z,2.33
2023-05-10T01:57:17.370Z,1.48
2023-05-10T02:00:20.484Z,2.33
2023-05-10T02:03:26.207Z,1.05
2023-05-10T02:06:28.723Z,0.90
2023-05-10T02:09:34.553Z,1.88
2023-05-10T02:12:38.778Z,1.55
2023-05-10T02:15:42.644Z,1.73
2023-05-10T02:18:46.068Z,1.67
2023-05-10T02:21:49.769Z,1.48
2023-05-10T02:24:52.017Z,2.33
2023-05-10T02:27:57.860Z,2.03
2023-05-10T02:31:03.544Z,1.55
2023-05-10T02:34:08.085Z,0.73
2023-05-10T02:37:11.031Z,12.13
2023-05-10T02:40:15.390Z,2.45
2023-05-10T02:43:19.576Z,2.03
2023-05-10T02:46:22.024Z,1.67
2023-05-10T02:49:24.090Z,2.03
2023-05-10T02:52:30.052Z,1.55
2023-05-10T02:55:39.889Z,4.82
2023-05-10T02:58:43.135Z,1.30
2023-05-10T03:01:45.261Z,5.00
2023-05-10T03:04:48.808Z,10.00
2023-05-10T03:07:51.994Z,11.32
2023-05-10T03:11:40.518Z,14.50
2023-05-10T03:14:58.554Z,15.05
2023-05-10T03:18:09.005Z,16.48
2023-05-10T03:21:13.906Z,20.15
2023-05-10T03:24:19.978Z,8.45
2023-05-10T03:27:27.184Z,23.38
2023-05-10T03:30:30.936Z,25.17
2023-05-10T03:33:33.639Z,18.77
2023-05-10T03:36:36.249Z,10.93
2023-05-10T03:39:38.618Z,11.60
2023-05-10T03:42:43.021Z,9.95
2023-05-10T03:45:45.269Z,9.40
2023-05-10T03:48:47.216Z,4.43
2023-05-10T03:51:49.531Z,11.18
2023-05-10T03:54:51.817Z,8.07
2023-05-10T03:57:55.102Z,11.77
2023-05-10T04:00:58.254Z,8.93
2023-05-10T04:04:00.837Z,10.23
2023-05-10T04:07:04.163Z,5.28
2023-05-10T04:10:06.959Z,6.40
2023-05-10T04:13:08.989Z,6.32
2023-05-10T04:16:11.368Z,5.47
2023-05-10T04:19:13.412Z,4.70
2023-05-10T04:22:16.078Z,5.40
2023-05-10T04:25:18.216Z,5.78
2023-05-10T04:28:20.652Z,3.75
2023-05-10T04:31:23.217Z,9.15
2023-05-10T04:34:25.553Z,8.02
2023-05-10T04:37:27.487Z,5.55
2023-05-10T04:40:29.794Z,4.82
2023-05-10T04:43:31.734Z,4.63
2023-05-10T04:46:34.044Z,4.20
2023-05-10T04:49:36.189Z,7.40
2023-05-10T04:52:38.599Z,3.78
2023-05-10T04:55:40.746Z,5.38
2023-05-10T04:58:43.038Z,6.90
2023-05-10T05:01:45.135Z,6.90
2023-05-10T05:04:47.561Z,3.80
2023-05-10T05:07:49.631Z,2.92
2023-05-10T05:10:51.976Z,4.82
2023-05-10T05:13:54.238Z,2.65
2023-05-10T05:16:57.059Z,4.15
2023-05-10T05:19:59.492Z,4.95
2023-05-10T05:23:02.274Z,2.97
2023-05-10T05:26:04.607Z,4.45
2023-05-10T05:29:07.079Z,16.58
2023-05-10T05:32:09.784Z,17.00
2023-05-10T05:35:12.169Z,7.80
2023-05-10T05:38:14.234Z,8.80
2023-05-10T05:41:16.560Z,17.65
2023-05-10T05:44:18.506Z,13.45
2023-05-10T05:47:20.821Z,18.30
2023-05-10T05:50:22.876Z,11.15
2023-05-10T05:53:25.392Z,5.18
2023-05-10T05:56:28.093Z,9.85
2023-05-10T05:59:30.605Z,15.23
2023-05-10T06:02:32.712Z,11.30
2023-05-10T06:05:35.128Z,8.02
2023-05-10T06:08:37.101Z,16.00
2023-05-10T06:11:39.814Z,10.20
2023-05-10T06:14:41.899Z,7.43
2023-05-10T06:17:45.313Z,17.50
2023-05-10T06:20:47.451Z,13.45
2023-05-10T06:23:49.811Z,15.63
2023-05-10T06:26:52.065Z,14.52
2023-05-10T06:30:02.027Z,12.35
2023-05-10T06:33:11.525Z,15.38
2023-05-10T06:36:14.432Z,12.25
2023-05-10T06:39:17.129Z,9.80
2023-05-10T06:42:19.512Z,7.35
2023-05-10T06:45:22.534Z,4.97
2023-05-10T06:48:24.951Z,9.77
2023-05-10T06:51:27.195Z,8.80
2023-05-10T06:54:29.572Z,10.45
2023-05-10T06:57:32.433Z,9.00
2023-05-10T07:00:34.804Z,4.28
2023-05-10T07:03:36.908Z,5.50
2023-05-10T07:06:39.214Z,10.07
2023-05-10T07:09:41.516Z,7.38
2023-05-10T07:12:43.904Z,10.15
2023-05-10T07:15:46.124Z,5.03
2023-05-10T07:18:48.603Z,4.57
2023-05-10T07:21:51.934Z,10.95
2023-05-10T07:24:54.517Z,6.23
2023-05-10T07:27:56.938Z,9.20
2023-05-10T07:30:59.794Z,6.15
2023-05-10T07:34:01.962Z,5.28
2023-05-10T07:37:04.421Z,6.90
2023-05-10T07:40:07.332Z,4.28
2023-05-10T07:43:09.564Z,11.73
2023-05-10T07:46:12.058Z,7.00
2023-05-10T07:49:14.520Z,8.65
2023-05-10T07:52:16.504Z,7.65
2023-05-10T07:55:20.088Z,8.70
2023-05-10T07:58:22.248Z,9.45
2023-05-10T08:01:24.626Z,7.82
2023-05-10T08:04:27.084Z,10.98
2023-05-10T08:07:29.383Z,8.55
2023-05-10T08:10:31.410Z,11.65
2023-05-10T08:13:33.933Z,17.92
2023-05-10T08:16:36.232Z,13.77
2023-05-10T08:19:38.499Z,10.80
2023-05-10T08:22:40.636Z,7.72
2023-05-10T08:25:42.888Z,11.68
2023-05-10T08:28:44.861Z,7.43
2023-05-10T08:31:47.283Z,6.32
2023-05-10T08:34:49.337Z,14.45
2023-05-10T08:37:52.403Z,6.25
2023-05-10T08:40:59.737Z,8.00
2023-05-10T08:44:05.164Z,6.75
2023-05-10T08:47:08.221Z,11.82
2023-05-10T08:50:11.713Z,7.72
2023-05-10T08:53:16.093Z,6.65
2023-05-10T08:56:19.055Z,7.60
2023-05-10T08:59:21.116Z,9.00
2023-05-10T09:02:24.682Z,6.65
2023-05-10T09:05:27.773Z,8.48
2023-05-10T09:08:32.356Z,6.67
2023-05-10T09:11:34.872Z,4.13
2023-05-10T09:14:37.752Z,5.88
2023-05-10T09:17:41.982Z,5.25
2023-05-10T09:20:44.329Z,9.65
2023-05-10T09:23:48.696Z,6.32
2023-05-10T09:26:51.849Z,4.85
2023-05-10T09:29:56.148Z,5.78
2023-05-10T09:33:00.161Z,4.82
2023-05-10T09:36:09.417Z,8.40
2023-05-10T09:39:11.764Z,5.63
2023-05-10T09:42:13.771Z,4.63
2023-05-10T09:45:16.350Z,3.85
2023-05-10T09:48:18.903Z,4.97
2023-05-10T09:51:22.565Z,3.88
2023-05-10T09:54:25.243Z,5.85
2023-05-10T09:57:27.489Z,2.80
2023-05-10T10:00:35.378Z,8.75
2023-05-10T10:03:43.208Z,4.25
2023-05-10T10:06:45.748Z,4.40
2023-05-10T10:09:48.052Z,4.78
2023-05-10T10:12:50.154Z,8.48
2023-05-10T10:15:55.366Z,4.80
2023-05-10T10:18:57.994Z,6.93
2023-05-10T10:22:01.833Z,4.35
2023-05-10T10:25:06.013Z,6.28
2023-05-10T10:28:08.268Z,3.55
2023-05-10T10:31:35.857Z,5.85
2023-05-10T10:34:40.825Z,3.83
2023-05-10T10:37:47.198Z,4.85
2023-05-10T10:40:49.576Z,3.65
2023-05-10T10:44:24.665Z,5.32
2023-05-10T10:47:32.093Z,9.18
2023-05-10T10:50:44.840Z,9.85
2023-05-10T10:53:49.282Z,6.45
2023-05-10T10:57:16.919Z,5.85
2023-05-10T11:00:33.306Z,9.82
2023-05-10T11:03:35.665Z,15.23
2023-05-10T11:06:38.813Z,14.63
2023-05-10T11:09:41.445Z,8.63
2023-05-10T11:13:03.994Z,11.00
2023-05-10T11:16:23.956Z,9.85
2023-05-10T11:19:29.466Z,5.38
2023-05-10T11:22:52.380Z,7.43
2023-05-10T11:25:55.740Z,8.13
2023-05-10T11:29:03.137Z,11.02
2023-05-10T11:32:09.381Z,12.65
2023-05-10T11:35:13.274Z,5.38
2023-05-10T11:41:23.086Z,10.25
2023-05-10T11:44:33.196Z,5.88
2023-05-10T11:47:37.083Z,5.60
2023-05-10T11:50:40.119Z,4.07
2023-05-10T11:53:43.216Z,3.03
2023-05-10T11:56:46.914Z,4.60
2023-05-10T11:59:49.108Z,2.97
2023-05-10T12:02:51.887Z,3.13
2023-05-10T12:05:54.784Z,2.97
2023-05-10T12:08:57.863Z,3.40
2023-05-10T12:12:00.319Z,4.20
2023-05-10T12:15:04.607Z,2.90
2023-05-10T12:18:07.309Z,4.93
2023-05-10T12:21:13.461Z,4.63
2023-05-10T12:24:20.660Z,3.72
2023-05-10T12:27:23.382Z,5.95
2023-05-10T12:30:30.293Z,8.65
2023-05-10T12:33:45.218Z,3.15
2023-05-10T12:36:52.167Z,5.47
2023-05-10T12:39:55.253Z,4.43
2023-05-10T12:42:58.150Z,4.13
2023-05-10T12:46:08.400Z,8.18
2023-05-10T12:49:11.169Z,2.35
2023-05-10T12:52:14.617Z,6.60
2023-05-10T12:55:16.972Z,4.00
2023-05-10T12:58:34.294Z,3.05
2023-05-10T13:01:38.134Z,5.38
2023-05-10T13:04:41.297Z,3.28
2023-05-10T13:07:45.442Z,5.90
2023-05-10T13:10:48.126Z,3.08
2023-05-10T13:13:50.304Z,5.80
2023-05-10T13:16:53.000Z,3.35
2023-05-10T13:19:55.969Z,2.72
2023-05-10T13:22:58.643Z,3.33
2023-05-10T13:26:01.518Z,6.88
2023-05-10T13:29:06.201Z,4.80
2023-05-10T13:32:08.572Z,4.72
2023-05-10T13:35:11.541Z,4.00
2023-05-10T13:38:15.588Z,20.67
2023-05-10T13:44:23.040Z,3.78
2023-05-10T13:47:25.729Z,5.00
2023-05-10T13:50:28.744Z,12.88
2023-05-10T13:53:32.293Z,9.93
2023-05-10T13:56:34.663Z,7.72
2023-05-10T13:59:38.901Z,8.73
2023-05-10T14:02:41.775Z,9.43
2023-05-10T14:05:47.243Z,8.48
2023-05-10T14:08:50.948Z,6.97
2023-05-10T14:11:53.933Z,16.80
2023-05-10T14:14:56.709Z,7.75
2023-05-10T14:18:00.184Z,11.80
2023-05-10T14:21:05.872Z,6.23
2023-05-10T14:24:09.056Z,10.88
2023-05-10T14:27:16.389Z,20.70
2023-05-10T14:30:19.330Z,19.17
2023-05-10T14:33:22.424Z,17.90
2023-05-10T14:36:26.144Z,12.80
2023-05-10T14:39:30.823Z,17.65
2023-05-10T14:42:33.662Z,12.23
2023-05-10T14:45:36.197Z,9.27
2023-05-10T14:48:38.895Z,11.27
2023-05-10T14:51:41.173Z,10.82
2023-05-10T14:54:44.239Z,12.00
2023-05-10T14:57:48.431Z,10.13
2023-05-10T15:00:51.252Z,12.65
2023-05-10T15:03:58.009Z,9.48
2023-05-10T15:07:01.649Z,11.55
2023-05-10T15:10:04.157Z,8.75
2023-05-10T15:13:10.927Z,5.55
2023-05-10T15:16:13.018Z,7.03
2023-05-10T15:19:16.915Z,7.22
2023-05-10T15:22:25.104Z,6.47
2023-05-10T15:25:29.093Z,5.38
2023-05-10T15:28:32.557Z,8.38
2023-05-10T15:31:37.632Z,11.07
2023-05-10T15:34:40.622Z,6.38
2023-05-10T15:37:43.476Z,4.37
2023-05-10T15:40:46.590Z,4.22
2023-05-10T15:43:49.632Z,10.60
2023-05-10T15:47:10.214Z,6.45
2023-05-10T15:50:19.917Z,10.48
2023-05-10T15:54:05.222Z,8.40
2023-05-10T15:57:09.685Z,6.88
2023-05-10T16:00:13.482Z,6.38
2023-05-10T16:03:16.661Z,7.63
2023-05-10T16:06:19.321Z,3.72
2023-05-10T16:09:22.682Z,6.32
2023-05-10T16:12:26.032Z,6.50
2023-05-10T16:15:54.524Z,9.10
2023-05-10T16:18:58.080Z,4.18
2023-05-10T16:22:01.350Z,9.80
2023-05-10T16:25:03.804Z,6.75
2023-05-10T16:28:06.631Z,4.88
2023-05-10T16:31:09.187Z,5.32
2023-05-10T16:34:11.863Z,5.05
2023-05-10T16:37:14.437Z,5.10
2023-05-10T16:40:17.505Z,6.18
2023-05-10T16:43:19.972Z,4.43
2023-05-10T16:46:23.534Z,6.07
2023-05-10T16:49:27.856Z,6.10
2023-05-10T16:52:32.735Z,5.07
2023-05-10T16:55:34.931Z,4.82
2023-05-10T16:58:38.427Z,4.93
2023-05-10T17:01:40.654Z,6.10
2023-05-10T17:04:43.429Z,5.20
2023-05-10T17:07:46.800Z,6.88
2023-05-10T17:10:49.408Z,8.45
2023-05-10T17:13:52.742Z,8.80
2023-05-10T17:16:56.026Z,6.72
2023-05-10T17:19:59.151Z,4.70
2023-05-10T17:23:03.487Z,7.33
2023-05-10T17:26:07.469Z,5.95
2023-05-10T17:29:10.138Z,7.05
2023-05-10T17:32:13.251Z,11.07
2023-05-10T17:35:16.351Z,8.68
2023-05-10T17:38:19.418Z,7.35
2023-05-10T17:41:23.641Z,13.85
2023-05-10T17:44:26.456Z,4.05
2023-05-10T17:47:29.247Z,8.27
2023-05-10T17:50:33.357Z,11.02
2023-05-10T17:53:36.077Z,9.50
2023-05-10T17:56:38.424Z,8.00
2023-05-10T17:59:41.512Z,8.65
2023-05-10T18:02:44.285Z,9.27
2023-05-10T18:05:47.988Z,10.88
2023-05-10T18:08:50.039Z,6.63
2023-05-10T18:11:52.829Z,8.52
2023-05-10T18:14:54.944Z,5.53
2023-05-10T18:17:58.125Z,5.68
2023-05-10T18:21:01.152Z,4.18
2023-05-10T18:24:04.504Z,6.75
2023-05-10T18:27:08.373Z,7.78
2023-05-10T18:30:13.008Z,10.27
2023-05-10T18:33:15.488Z,8.60
2023-05-10T18:36:18.590Z,6.70
2023-05-10T18:39:21.041Z,9.43
2023-05-10T18:42:23.854Z,9.10
2023-05-10T18:45:26.515Z,8.55
2023-05-10T18:48:30.628Z,8.73
2023-05-10T18:51:33.215Z,8.30
2023-05-10T18:54:35.689Z,11.00
2023-05-10T18:57:43.824Z,9.02
2023-05-10T19:00:46.971Z,10.48
2023-05-10T19:03:55.048Z,8.25
2023-05-10T19:06:57.826Z,11.32
2023-05-10T19:09:59.998Z,9.25
2023-05-10T19:13:02.795Z,9.38
2023-05-10T19:16:07.598Z,9.80
2023-05-10T19:19:10.697Z,8.68
2023-05-10T19:22:14.243Z,10.32
2023-05-10T19:25:17.789Z,9.63
2023-05-10T19:28:22.867Z,10.48
2023-05-10T19:31:26.332Z,10.75
2023-05-10T19:34:29.982Z,11.50
2023-05-10T19:37:32.675Z,12.82
2023-05-10T19:40:35.198Z,10.85
2023-05-10T19:43:39.069Z,11.85
2023-05-10T19:46:41.712Z,12.73
2023-05-10T19:49:44.355Z,14.27
2023-05-10T19:52:46.939Z,15.88
2023-05-10T19:55:50.110Z,12.18
2023-05-10T19:58:52.411Z,13.32
2023-05-10T20:01:55.376Z,13.57
2023-05-10T20:04:57.829Z,12.07
2023-05-10T20:08:00.590Z,12.00
2023-05-10T20:11:06.460Z,12.00
2023-05-10T20:14:10.713Z,12.57
2023-05-10T20:17:13.461Z,11.98
2023-05-10T20:20:17.095Z,13.63
2023-05-10T20:23:20.122Z,10.95
2023-05-10T20:26:22.822Z,12.88
2023-05-10T20:29:25.064Z,10.75
2023-05-10T20:32:28.510Z,13.90
2023-05-10T20:35:34.544Z,12.98
2023-05-10T20:39:01.895Z,11.40
2023-05-10T20:42:05.870Z,13.18
2023-05-10T20:45:16.233Z,14.60
2023-05-10T20:48:58.119Z,14.70
2023-05-10T20:52:10.383Z,11.20
2023-05-10T20:55:18.208Z,10.82
2023-05-10T20:58:36.263Z,12.48
2023-05-10T21:01:38.950Z,17.65
2023-05-10T21:04:45.107Z,10.23
2023-05-10T21:07:47.871Z,9.85
2023-05-10T21:10:50.271Z,9.77
2023-05-10T21:13:52.798Z,11.02
2023-05-10T21:16:55.157Z,11.77
2023-05-10T21:19:57.627Z,11.38
2023-05-10T21:23:00.001Z,12.48
2023-05-10T21:26:04.840Z,11.57
2023-05-10T21:29:07.029Z,14.18
2023-05-10T21:32:09.892Z,10.15
2023-05-10T21:35:12.492Z,10.60
2023-05-10T21:38:16.007Z,11.75
2023-05-10T21:41:18.221Z,13.05
2023-05-10T21:44:21.157Z,12.57
2023-05-10T21:47:23.552Z,13.95
2023-05-10T21:50:27.634Z,15.63
2023-05-10T21:53:30.153Z,15.48
2023-05-10T21:56:33.676Z,8.68
2023-05-10T21:59:36.507Z,15.52
2023-05-10T22:02:39.563Z,12.63
2023-05-10T22:05:42.232Z,14.82
2023-05-10T22:08:46.142Z,8.50
2023-05-10T22:11:57.458Z,10.63
2023-05-10T22:15:10.185Z,10.35
2023-05-10T22:18:19.716Z,9.35
2023-05-10T22:21:24.788Z,5.35
2023-05-10T22:24:27.259Z,6.68
2023-05-10T22:27:30.130Z,2.90
2023-05-10T22:30:33.214Z,4.00
2023-05-10T22:33:35.771Z,3.13
2023-05-10T22:36:38.276Z,3.03
2023-05-10T22:39:48.893Z,6.22
2023-05-10T22:42:53.731Z,3.60
2023-05-10T22:45:56.480Z,11.77
2023-05-10T22:49:02.285Z,11.25
2023-05-10T22:52:04.862Z,5.88
2023-05-10T22:55:07.532Z,4.38
2023-05-10T22:58:10.403Z,4.28
2023-05-10T23:01:12.487Z,3.53
2023-05-10T23:04:16.230Z,3.97
2023-05-10T23:07:18.643Z,3.17
2023-05-10T23:10:21.420Z,5.80
2023-05-10T23:13:25.164Z,11.57
2023-05-10T23:16:28.026Z,22.25
2023-05-10T23:19:30.353Z,9.73
2023-05-10T23:22:33.461Z,5.32
2023-05-10T23:25:36.748Z,6.13
2023-05-10T23:28:39.290Z,3.40
2023-05-10T23:31:45.577Z,4.68
2023-05-10T23:34:48.254Z,11.20
2023-05-10T23:37:50.440Z,8.13
2023-05-10T23:40:53.380Z,11.10
2023-05-10T23:43:55.636Z,11.32
2023-05-10T23:46:58.202Z,12.00
2023-05-10T23:50:02.590Z,15.45
2023-05-10T23:53:05.159Z,15.70
2023-05-10T23:56:08.292Z,14.60
2023-05-10T23:59:10.976Z,15.75
